Time;durP1;ratioP1;P1;durP2;ratioP2;P2;SDS_P1;SDS_P2;PMS_P1;PMS_P2;Temp;Humidity;BMP_temperature;BMP_pressure;BME280_temperature;BME280_humidity;BME280_pressure;Samples;Min_cycle;Max_cycle;Signal;HPM_P1;HPM_P2
2023/12/02 00:01:36;;;;;;;;;;;;;;;0.18;85.44;100373.02;106860;1254;64969;-82
2023/12/02 00:04:03;;;;;;;;;;;;;;;0.20;85.31;100365.91;106814;1255;71754;-82
2023/12/02 00:06:30;;;;;;;;;;;;;;;0.23;85.35;100357.96;106752;1258;124389;-83
2023/12/02 00:08:56;;;;;;;;;;;;;;;0.24;85.38;100351.64;106909;1254;59174;-82
2023/12/02 00:11:23;;;;;;;;;;;;;;;0.26;85.18;100350.00;106813;1255;123454;-82
2023/12/02 00:13:49;;;;;;;;;;;;;;;0.26;85.33;100350.89;106759;1255;66152;-82
2023/12/02 00:16:16;;;;;;;;;;;;;;;0.27;85.19;100354.89;106651;1255;124751;-82
2023/12/02 00:18:43;;;;;;;;;;;;;;;0.27;85.25;100352.33;106933;1254;61329;-82
2023/12/02 00:21:09;;;;;;;;;;;;;;;0.27;85.05;100352.31;106847;1254;59340;-82
2023/12/02 00:23:36;;;;;;;;;;;;;;;0.26;84.92;100344.81;106898;1258;125433;-82
2023/12/02 00:26:03;;;;;;;;;;;;;;;0.22;85.06;100342.36;106824;1254;67712;-83
2023/12/02 00:28:30;;;;;;;;;;;;;;;0.17;85.06;100350.18;106869;1254;124985;-81
2023/12/02 00:30:56;;;;;;;;;;;;;;;0.11;84.77;100355.83;106348;1255;61367;-81
2023/12/02 00:33:23;;;;;;;;;;;;;;;0.04;84.86;100361.95;106179;1260;61392;-82
2023/12/02 00:35:50;;;;;;;;;;;;;;;-0.03;84.74;100357.94;106108;1254;124575;-82
2023/12/02 00:38:16;;;;;;;;;;;;;;;-0.10;84.72;100354.77;106977;1254;66221;-81
2023/12/02 00:40:43;;;;;;;;;;;;;;;-0.15;84.94;100348.59;106792;1254;124738;-79
2023/12/02 00:43:09;;;;;;;;;;;;;;;-0.19;85.03;100359.56;106964;1254;59387;-79
2023/12/02 00:45:36;;;;;;;;;;;;;;;-0.21;85.18;100369.77;106802;1253;61157;-79
2023/12/02 00:48:03;;;;;;;;;;;;;;;-0.20;85.36;100367.79;106637;1259;125073;-79
2023/12/02 00:50:30;;;;;;;;;;;;;;;-0.17;85.39;100369.82;106780;1258;64921;-81
2023/12/02 00:52:57;;;;;;;;;;;;;;;-0.14;85.58;100371.23;106670;1254;125306;-82
2023/12/02 00:55:23;;;;;;;;;;;;;;;-0.10;85.67;100370.27;107046;1253;61235;-82
2023/12/02 00:57:50;;;;;;;;;;;;;;;-0.07;85.75;100371.17;107095;1257;61186;-81
2023/12/02 01:00:17;;;;;;;;;;;;;;;-0.03;85.82;100370.85;106980;1258;124795;-78
2023/12/02 01:02:44;;;;;;;;;;;;;;;-0.00;85.67;100366.40;106945;1258;66734;-77
2023/12/02 01:05:10;;;;;;;;;;;;;;;0.03;85.76;100369.34;106880;1254;125012;-81
2023/12/02 01:07:37;;;;;;;;;;;;;;;0.07;85.87;100370.95;106997;1253;61455;-81
2023/12/02 01:10:04;;;;;;;;;;;;;;;0.11;85.85;100371.52;107082;1253;61864;-81
2023/12/02 01:12:30;;;;;;;;;;;;;;;0.11;85.84;100370.39;107071;1253;75197;-76
2023/12/02 01:14:57;;;;;;;;;;;;;;;0.14;85.70;100371.39;107043;1253;65132;-78
2023/12/02 01:17:24;;;;;;;;;;;;;;;0.16;85.87;100372.54;106919;1254;124612;-77
2023/12/02 01:19:50;;;;;;;;;;;;;;;0.18;85.75;100366.13;107045;1254;59417;-78
2023/12/02 01:22:17;;;;;;;;;;;;;;;0.19;85.57;100369.64;106961;1257;124696;-82
2023/12/02 01:24:44;;;;;;;;;;;;;;;0.21;85.82;100369.73;106971;1254;73381;-82
2023/12/02 01:27:10;;;;;;;;;;;;;;;0.23;85.77;100366.23;106802;1254;65123;-82
2023/12/02 01:29:37;;;;;;;;;;;;;;;0.25;85.63;100363.76;106601;1256;124857;-78
2023/12/02 01:32:04;;;;;;;;;;;;;;;0.26;85.61;100362.58;106824;1254;59687;-78
2023/12/02 01:34:31;;;;;;;;;;;;;;;0.25;85.62;100358.07;106759;1255;125074;-78
2023/12/02 01:36:57;;;;;;;;;;;;;;;0.24;85.28;100352.98;106801;1255;74789;-79
2023/12/02 01:39:25;;;;;;;;;;;;;;;0.21;85.26;100358.69;106632;1258;66334;-79
2023/12/02 01:41:52;;;;;;;;;;;;;;;0.18;85.54;100367.86;106731;1254;124451;-78
2023/12/02 01:44:18;;;;;;;;;;;;;;;0.17;85.35;100361.91;106951;1254;61244;-77
2023/12/02 01:46:45;;;;;;;;;;;;;;;0.16;85.47;100357.89;106896;1253;124783;-77
2023/12/02 01:49:12;;;;;;;;;;;;;;;0.15;85.53;100355.05;106964;1254;74659;-77
2023/12/02 01:51:38;;;;;;;;;;;;;;;0.11;85.36;100353.61;106750;1254;65489;-81
2023/12/02 01:54:05;;;;;;;;;;;;;;;0.04;85.01;100362.70;106708;1255;124847;-81
2023/12/02 01:56:32;;;;;;;;;;;;;;;-0.03;85.29;100366.08;106942;1256;61388;-81
2023/12/02 01:58:58;;;;;;;;;;;;;;;-0.07;85.22;100360.79;106176;1258;124877;-78
2023/12/02 02:01:25;;;;;;;;;;;;;;;-0.12;85.39;100351.36;106203;1256;74701;-77
2023/12/02 02:03:51;;;;;;;;;;;;;;;-0.17;85.40;100362.06;106816;1255;64979;-81
2023/12/02 02:06:18;;;;;;;;;;;;;;;-0.24;85.59;100365.64;106766;1255;124777;-78
2023/12/02 02:08:45;;;;;;;;;;;;;;;-0.31;85.26;100358.65;106806;1258;61161;-78
2023/12/02 02:11:12;;;;;;;;;;;;;;;-0.37;85.43;100362.25;106823;1258;124510;-82
2023/12/02 02:13:38;;;;;;;;;;;;;;;-0.44;85.44;100367.64;106825;1257;74441;-78
2023/12/02 02:16:05;;;;;;;;;;;;;;;-0.52;85.52;100363.05;106796;1255;124864;-78
2023/12/02 02:18:35;;;;;;;;;;;;;;;-0.57;85.61;100359.45;106920;1255;71385;-78
2023/12/02 02:21:01;;;;;;;;;;;;;;;-0.63;85.81;100353.38;106815;1258;61360;-78
2023/12/02 02:23:28;;;;;;;;;;;;;;;-0.65;85.92;100363.20;106697;1258;125042;-76
2023/12/02 02:25:55;;;;;;;;;;;;;;;-0.68;85.98;100362.19;106157;1256;73438;-77
2023/12/02 02:28:22;;;;;;;;;;;;;;;-0.72;86.10;100361.60;106073;1256;124847;-77
2023/12/02 02:30:48;;;;;;;;;;;;;;;-0.77;85.95;100362.64;106087;1256;72674;-77
2023/12/02 02:33:15;;;;;;;;;;;;;;;-0.81;86.15;100354.11;106231;1256;61130;-78
2023/12/02 02:35:43;;;;;;;;;;;;;;;-0.85;86.11;100356.96;106060;1259;124986;-81
2023/12/02 02:38:12;;;;;;;;;;;;;;;-0.89;86.31;100359.83;106172;1261;73717;-81
2023/12/02 02:40:39;;;;;;;;;;;;;;;-0.93;86.34;100367.98;106076;1260;125316;-81
2023/12/02 02:43:06;;;;;;;;;;;;;;;-0.98;86.42;100365.92;106228;1258;72698;-81
2023/12/02 02:45:33;;;;;;;;;;;;;;;-1.03;86.34;100365.83;106124;1256;61309;-78
2023/12/02 02:47:59;;;;;;;;;;;;;;;-1.07;86.41;100362.98;106026;1255;124548;-77
2023/12/02 02:50:26;;;;;;;;;;;;;;;-1.09;86.64;100361.46;106049;1258;74333;-78
2023/12/02 02:52:53;;;;;;;;;;;;;;;-1.11;86.68;100356.29;106063;1255;125041;-78
2023/12/02 02:55:19;;;;;;;;;;;;;;;-1.15;86.63;100352.29;106110;1258;71498;-77
2023/12/02 02:57:46;;;;;;;;;;;;;;;-1.19;86.66;100356.03;106296;1256;61229;-78
2023/12/02 03:00:13;;;;;;;;;;;;;;;-1.23;86.83;100363.01;106258;1254;125097;-78
2023/12/02 03:02:40;;;;;;;;;;;;;;;-1.26;86.84;100369.47;106299;1254;74640;-78
2023/12/02 03:05:07;;;;;;;;;;;;;;;-1.31;86.62;100361.40;106292;1257;124774;-78
2023/12/02 03:07:34;;;;;;;;;;;;;;;-1.35;86.62;100358.02;106350;1254;72856;-77
2023/12/02 03:10:00;;;;;;;;;;;;;;;-1.40;86.79;100358.77;106320;1258;61337;-77
2023/12/02 03:12:27;;;;;;;;;;;;;;;-1.44;86.76;100360.34;106201;1259;124869;-77
2023/12/02 03:14:54;;;;;;;;;;;;;;;-1.47;86.79;100362.92;106288;1254;73972;-77
2023/12/02 03:17:21;;;;;;;;;;;;;;;-1.50;87.03;100362.02;106186;1254;124852;-77
2023/12/02 03:19:48;;;;;;;;;;;;;;;-1.53;86.75;100356.64;106342;1258;71426;-76
2023/12/02 03:22:15;;;;;;;;;;;;;;;-1.58;86.62;100361.50;106442;1259;124788;-78
2023/12/02 03:24:41;;;;;;;;;;;;;;;-1.61;86.84;100365.10;106302;1254;61237;-78
2023/12/02 03:27:08;;;;;;;;;;;;;;;-1.63;86.75;100368.04;106417;1254;74347;-77
2023/12/02 03:29:35;;;;;;;;;;;;;;;-1.66;86.68;100369.90;106307;1254;124867;-77
2023/12/02 03:32:02;;;;;;;;;;;;;;;-1.67;86.94;100372.10;106326;1254;72659;-77
2023/12/02 03:34:29;;;;;;;;;;;;;;;-1.68;87.07;100372.55;106127;1254;125190;-77
2023/12/02 03:36:55;;;;;;;;;;;;;;;-1.68;87.12;100373.90;106230;1253;61196;-77
2023/12/02 03:39:23;;;;;;;;;;;;;;;-1.66;87.33;100370.65;106259;1259;74702;-77
2023/12/02 03:41:49;;;;;;;;;;;;;;;-1.61;87.52;100365.58;106038;1256;124619;-77
2023/12/02 03:44:16;;;;;;;;;;;;;;;-1.59;87.53;100368.86;106186;1254;71408;-77
2023/12/02 03:46:43;;;;;;;;;;;;;;;-1.56;87.56;100370.59;105988;1260;124949;-77
2023/12/02 03:49:09;;;;;;;;;;;;;;;-1.52;87.77;100377.95;105862;1255;61266;-77
2023/12/02 03:51:36;;;;;;;;;;;;;;;-1.46;87.81;100375.52;106041;1256;74684;-77
2023/12/02 03:54:03;;;;;;;;;;;;;;;-1.39;88.08;100373.24;106192;1258;124634;-77
2023/12/02 03:56:29;;;;;;;;;;;;;;;-1.33;88.08;100369.67;106326;1254;72389;-77
2023/12/02 03:58:56;;;;;;;;;;;;;;;-1.28;88.07;100365.71;106130;1255;124805;-77
2023/12/02 04:01:23;;;;;;;;;;;;;;;-1.23;87.88;100360.73;106203;1258;61248;-78
2023/12/02 04:04:09;;;;;;;;;;;;;;;-1.17;87.94;100359.73;108992;1256;125123;-82
2023/12/02 04:06:36;;;;;;;;;;;;;;;-1.13;87.99;100355.88;106512;1256;65130;-81
2023/12/02 04:09:05;;;;;;;;;;;;;;;-1.09;87.77;100358.70;106238;1258;70463;-77
2023/12/02 04:11:32;;;;;;;;;;;;;;;-1.05;87.91;100363.63;108912;1255;124874;-78
2023/12/02 04:13:58;;;;;;;;;;;;;;;-1.02;87.82;100362.63;107012;1255;61236;-77
2023/12/02 04:16:25;;;;;;;;;;;;;;;-0.98;87.95;100361.83;106152;1255;125026;-77
2023/12/02 04:18:52;;;;;;;;;;;;;;;-0.94;87.76;100361.69;106110;1258;65251;-77
2023/12/02 04:21:19;;;;;;;;;;;;;;;-0.92;87.78;100363.20;106093;1256;72743;-76
2023/12/02 04:23:45;;;;;;;;;;;;;;;-0.91;87.79;100365.00;106156;1258;124716;-76
2023/12/02 04:26:12;;;;;;;;;;;;;;;-0.89;87.73;100368.05;106145;1258;61146;-77
2023/12/02 04:28:38;;;;;;;;;;;;;;;-0.87;87.59;100367.34;106087;1256;124750;-78
2023/12/02 04:31:05;;;;;;;;;;;;;;;-0.85;87.72;100366.80;106155;1256;66255;-78
2023/12/02 04:33:32;;;;;;;;;;;;;;;-0.83;87.93;100369.87;106901;1258;70512;-77
2023/12/02 04:35:59;;;;;;;;;;;;;;;-0.81;87.67;100370.14;106777;1255;124710;-77
2023/12/02 04:38:25;;;;;;;;;;;;;;;-0.80;87.68;100372.64;106872;1255;61189;-77
2023/12/02 04:40:52;;;;;;;;;;;;;;;-0.78;87.54;100371.71;106626;1258;125194;-77
2023/12/02 04:43:19;;;;;;;;;;;;;;;-0.76;87.66;100369.44;106032;1256;64679;-77
2023/12/02 04:45:45;;;;;;;;;;;;;;;-0.73;87.85;100364.95;106156;1256;71387;-77
2023/12/02 04:48:12;;;;;;;;;;;;;;;-0.73;87.52;100365.52;106266;1254;124741;-78
2023/12/02 04:50:39;;;;;;;;;;;;;;;-0.74;87.73;100363.38;106339;1254;60154;-79
2023/12/02 04:53:06;;;;;;;;;;;;;;;-0.76;87.75;100360.27;106773;1256;124998;-79
2023/12/02 04:55:32;;;;;;;;;;;;;;;-0.79;87.47;100361.13;107006;1254;65848;-77
2023/12/02 04:57:59;;;;;;;;;;;;;;;-0.83;87.51;100365.73;106931;1256;72721;-77
2023/12/02 05:00:25;;;;;;;;;;;;;;;-0.90;87.15;100370.27;106768;1256;124840;-77
2023/12/02 05:02:52;;;;;;;;;;;;;;;-0.95;87.17;100375.41;106234;1256;61179;-77
2023/12/02 05:05:19;;;;;;;;;;;;;;;-1.01;87.24;100375.07;106095;1256;124479;-77
2023/12/02 05:07:46;;;;;;;;;;;;;;;-1.05;87.13;100384.94;106282;1258;66037;-81
2023/12/02 05:10:12;;;;;;;;;;;;;;;-1.09;87.25;100385.92;106216;1256;126191;-82
2023/12/02 05:12:40;;;;;;;;;;;;;;;-1.10;87.55;100384.63;106896;1255;60915;-82
2023/12/02 05:15:09;;;;;;;;;;;;;;;-1.11;87.62;100384.08;106891;1261;61367;-83
2023/12/02 05:17:35;;;;;;;;;;;;;;;-1.11;87.49;100381.48;106888;1255;124729;-82
2023/12/02 05:20:02;;;;;;;;;;;;;;;-1.11;87.36;100381.62;106952;1258;66269;-82
2023/12/02 05:22:29;;;;;;;;;;;;;;;-1.14;87.43;100379.18;106852;1256;125123;-82
2023/12/02 05:24:56;;;;;;;;;;;;;;;-1.18;87.52;100380.38;106173;1260;60442;-82
2023/12/02 05:27:22;;;;;;;;;;;;;;;-1.20;87.42;100384.98;106372;1254;61266;-83
2023/12/02 05:29:49;;;;;;;;;;;;;;;-1.25;87.20;100393.30;106835;1254;123617;-83
2023/12/02 05:32:16;;;;;;;;;;;;;;;-1.29;87.28;100392.37;106934;1255;66239;-82
2023/12/02 05:34:42;;;;;;;;;;;;;;;-1.32;87.09;100394.58;106712;1256;126909;-78
2023/12/02 05:37:09;;;;;;;;;;;;;;;-1.34;87.25;100401.48;106954;1258;59584;-77
2023/12/02 05:39:36;;;;;;;;;;;;;;;-1.35;87.26;100401.60;106933;1254;61180;-82
2023/12/02 05:42:03;;;;;;;;;;;;;;;-1.35;87.16;100394.15;106871;1254;124744;-82
2023/12/02 05:44:30;;;;;;;;;;;;;;;-1.37;87.22;100391.33;106942;1254;65050;-82
2023/12/02 05:46:56;;;;;;;;;;;;;;;-1.39;87.18;100389.80;106855;1254;124808;-81
2023/12/02 05:49:23;;;;;;;;;;;;;;;-1.42;87.10;100391.47;107057;1257;61214;-81
2023/12/02 05:51:50;;;;;;;;;;;;;;;-1.46;87.03;100387.23;107119;1254;59532;-82
2023/12/02 05:54:16;;;;;;;;;;;;;;;-1.49;87.06;100384.65;106794;1256;124563;-82
2023/12/02 05:56:43;;;;;;;;;;;;;;;-1.53;86.90;100385.76;106779;1260;65086;-82
2023/12/02 05:59:10;;;;;;;;;;;;;;;-1.57;87.06;100392.38;106837;1254;125015;-83
2023/12/02 06:01:37;;;;;;;;;;;;;;;-1.60;87.05;100389.93;106928;1255;61453;-83
2023/12/02 06:04:04;;;;;;;;;;;;;;;-1.63;87.06;100389.27;106731;1254;61459;-82
2023/12/02 06:06:31;;;;;;;;;;;;;;;-1.64;87.02;100386.05;106749;1256;73207;-82
2023/12/02 06:08:57;;;;;;;;;;;;;;;-1.65;87.14;100386.14;106800;1260;66318;-78
2023/12/02 06:11:24;;;;;;;;;;;;;;;-1.66;87.39;100383.88;106655;1256;125025;-78
2023/12/02 06:13:51;;;;;;;;;;;;;;;-1.63;87.41;100387.31;106032;1256;61353;-74
2023/12/02 06:16:17;;;;;;;;;;;;;;;-1.62;87.52;100389.61;106000;1260;124835;-74
2023/12/02 06:18:44;;;;;;;;;;;;;;;-1.61;87.62;100386.62;106508;1256;73367;-74
2023/12/02 06:21:11;;;;;;;;;;;;;;;-1.59;87.50;100391.05;106376;1254;66285;-79
2023/12/02 06:23:38;;;;;;;;;;;;;;;-1.58;87.54;100396.30;106588;1260;124553;-79
2023/12/02 06:26:05;;;;;;;;;;;;;;;-1.53;87.65;100403.44;106732;1255;61352;-80
2023/12/02 06:28:32;;;;;;;;;;;;;;;-1.48;87.86;100400.38;106727;1256;124798;-83
2023/12/02 06:30:59;;;;;;;;;;;;;;;-1.42;87.81;100397.46;106744;1255;73360;-80
2023/12/02 06:33:26;;;;;;;;;;;;;;;-1.37;87.89;100396.95;106779;1255;66276;-80
2023/12/02 06:35:52;;;;;;;;;;;;;;;-1.32;87.70;100398.16;106683;1255;124564;-79
2023/12/02 06:38:19;;;;;;;;;;;;;;;-1.28;87.84;100394.64;106734;1255;61362;-82
2023/12/02 06:40:46;;;;;;;;;;;;;;;-1.23;87.60;100388.43;106615;1260;125795;-86
2023/12/02 06:43:13;;;;;;;;;;;;;;;-1.19;87.80;100384.40;106531;1255;73493;-81
2023/12/02 06:45:40;;;;;;;;;;;;;;;-1.15;87.84;100385.54;106636;1256;66155;-78
2023/12/02 06:48:07;;;;;;;;;;;;;;;-1.11;87.84;100388.20;106584;1258;125030;-79
2023/12/02 06:50:33;;;;;;;;;;;;;;;-1.08;87.53;100394.72;106689;1254;61289;-79
2023/12/02 06:53:00;;;;;;;;;;;;;;;-1.05;87.75;100398.90;106052;1256;294646;-77
2023/12/02 06:55:31;;;;;;;;;;;;;;;-1.02;87.73;100394.48;106177;1256;73396;-83
2023/12/02 06:57:58;;;;;;;;;;;;;;;-0.98;87.64;100401.41;106832;1256;65035;-82
2023/12/02 07:00:25;;;;;;;;;;;;;;;-0.94;87.50;100405.98;106608;1256;124928;-76
2023/12/02 07:02:52;;;;;;;;;;;;;;;-0.89;87.53;100411.16;106123;1258;61251;-75
2023/12/02 07:05:18;;;;;;;;;;;;;;;-0.84;87.56;100411.63;106298;1254;124646;-76
2023/12/02 07:07:46;;;;;;;;;;;;;;;-0.79;87.64;100407.16;106014;1255;74773;-78
2023/12/02 07:10:13;;;;;;;;;;;;;;;-0.73;87.44;100408.23;107484;1254;125011;-77
2023/12/02 07:12:40;;;;;;;;;;;;;;;-0.69;87.35;100412.64;106056;1254;72736;-78
2023/12/02 07:15:08;;;;;;;;;;;;;;;-0.64;87.49;100418.09;106077;1258;61320;-78
2023/12/02 07:17:34;;;;;;;;;;;;;;;-0.58;87.44;100425.73;105952;1258;124575;-79
2023/12/02 07:20:01;;;;;;;;;;;;;;;-0.52;87.36;100426.28;106594;1255;74499;-82
2023/12/02 07:22:28;;;;;;;;;;;;;;;-0.45;87.23;100430.16;106694;1255;124909;-83
2023/12/02 07:24:54;;;;;;;;;;;;;;;-0.39;87.34;100435.36;106800;1255;72462;-82
2023/12/02 07:27:21;;;;;;;;;;;;;;;-0.33;87.21;100432.48;106833;1260;61253;-82
2023/12/02 07:29:48;;;;;;;;;;;;;;;-0.26;87.21;100430.14;106465;1254;125051;-82
2023/12/02 07:32:14;;;;;;;;;;;;;;;-0.19;87.21;100430.08;107047;1256;74698;-82
2023/12/02 07:34:41;;;;;;;;;;;;;;;-0.12;87.00;100429.32;106718;1255;123821;-83
2023/12/02 07:37:08;;;;;;;;;;;;;;;-0.06;86.90;100435.70;106919;1259;71670;-77
2023/12/02 07:39:36;;;;;;;;;;;;;;;0.02;86.90;100436.02;106328;1256;61227;-77
2023/12/02 07:42:02;;;;;;;;;;;;;;;0.08;86.80;100440.41;105943;1260;124659;-79
2023/12/02 07:44:29;;;;;;;;;;;;;;;0.17;86.75;100439.72;106109;1258;73500;-82
2023/12/02 07:46:56;;;;;;;;;;;;;;;0.24;86.70;100438.93;106559;1258;124708;-83
2023/12/02 07:49:22;;;;;;;;;;;;;;;0.30;86.51;100442.46;106612;1256;71217;-82
2023/12/02 07:51:49;;;;;;;;;;;;;;;0.38;86.34;100443.40;106621;1257;60326;-82
2023/12/02 07:54:16;;;;;;;;;;;;;;;0.44;86.46;100444.98;107409;1259;124463;-82
2023/12/02 07:56:43;;;;;;;;;;;;;;;0.50;86.20;100449.48;107711;1258;72389;-82
2023/12/02 07:59:10;;;;;;;;;;;;;;;0.58;86.12;100451.52;107265;1259;125076;-82
2023/12/02 08:01:37;;;;;;;;;;;;;;;0.67;86.17;100445.67;107461;1258;71567;-82
2023/12/02 08:04:04;;;;;;;;;;;;;;;0.76;85.96;100437.25;106585;1254;61352;-77
2023/12/02 08:06:31;;;;;;;;;;;;;;;0.83;85.72;100437.13;106273;1259;183146;-82
2023/12/02 08:08:58;;;;;;;;;;;;;;;0.93;85.73;100443.92;106626;1259;73789;-82
2023/12/02 08:11:25;;;;;;;;;;;;;;;1.03;85.84;100444.48;106413;1254;124641;-82
2023/12/02 08:13:51;;;;;;;;;;;;;;;1.13;85.75;100445.95;106452;1259;70526;-82
2023/12/02 08:16:18;;;;;;;;;;;;;;;1.21;85.50;100449.66;106366;1260;124200;-82
2023/12/02 08:18:45;;;;;;;;;;;;;;;1.30;85.40;100457.26;106390;1256;61333;-82
2023/12/02 08:21:11;;;;;;;;;;;;;;;1.39;85.22;100464.20;106366;1258;74405;-82
2023/12/02 08:23:38;;;;;;;;;;;;;;;1.48;85.43;100465.02;106181;1260;124429;-81
2023/12/02 08:26:05;;;;;;;;;;;;;;;1.54;84.87;100462.45;106159;1258;71292;-77
2023/12/02 08:28:32;;;;;;;;;;;;;;;1.59;84.90;100461.17;106031;1259;123861;-77
2023/12/02 08:30:59;;;;;;;;;;;;;;;1.66;84.88;100458.45;106172;1254;61276;-77
2023/12/02 08:33:26;;;;;;;;;;;;;;;1.71;84.83;100453.88;106270;1259;73834;-77
2023/12/02 08:35:52;;;;;;;;;;;;;;;1.72;84.43;100458.93;106096;1254;124073;-78
2023/12/02 08:38:19;;;;;;;;;;;;;;;1.72;84.07;100464.82;106112;1260;72670;-78
2023/12/02 08:40:48;;;;;;;;;;;;;;;1.73;84.22;100468.34;106097;1254;125172;-78
2023/12/02 08:43:15;;;;;;;;;;;;;;;1.78;84.16;100471.40;106228;1259;61389;-78
2023/12/02 08:45:42;;;;;;;;;;;;;;;1.87;84.13;100472.05;106217;1259;74662;-78
2023/12/02 08:48:08;;;;;;;;;;;;;;;1.94;84.01;100470.52;106087;1260;124694;-78
2023/12/02 08:50:35;;;;;;;;;;;;;;;2.00;83.78;100466.04;106077;1260;73362;-78
2023/12/02 08:53:03;;;;;;;;;;;;;;;2.08;83.76;100469.58;106013;1257;124393;-77
2023/12/02 08:55:29;;;;;;;;;;;;;;;2.17;83.67;100469.70;106208;1256;61154;-78
2023/12/02 08:57:56;;;;;;;;;;;;;;;2.23;83.36;100468.30;106194;1260;75423;-78
2023/12/02 09:00:23;;;;;;;;;;;;;;;2.25;83.20;100463.05;106137;1259;124420;-77
2023/12/02 09:02:50;;;;;;;;;;;;;;;2.19;82.91;100466.52;106176;1259;71085;-81
2023/12/02 09:05:17;;;;;;;;;;;;;;;2.13;82.63;100471.05;106000;1256;124579;-77
2023/12/02 09:07:44;;;;;;;;;;;;;;;2.08;82.48;100470.10;106326;1260;61327;-83
2023/12/02 09:10:11;;;;;;;;;;;;;;;2.01;82.37;100469.36;106817;1253;124602;-82
2023/12/02 09:12:37;;;;;;;;;;;;;;;1.97;82.54;100466.21;106811;1260;65252;-83
2023/12/02 09:15:08;;;;;;;;;;;;;;;1.94;82.61;100468.48;106893;1257;71385;-79
2023/12/02 09:17:55;;;;;;;;;;;;;;;1.93;82.65;100468.80;106607;1259;125546;-78
2023/12/02 09:20:40;;;;;;;;;;;;;;;1.96;82.79;100474.27;106759;1258;60246;-78
2023/12/02 09:23:07;;;;;;;;;;;;;;;2.02;82.86;100475.27;106042;1254;124419;-78
2023/12/02 09:25:38;;;;;;;;;;;;;;;2.09;82.88;100481.58;106211;1255;65005;-78
2023/12/02 09:28:11;;;;;;;;;;;;;;;2.14;82.65;100482.52;109365;1253;72673;-78
2023/12/02 09:30:39;;;;;;;;;;;;;;;2.18;82.62;100481.68;107904;1255;61360;-82
2023/12/02 09:33:06;;;;;;;;;;;;;;;2.25;82.60;100481.05;106812;1258;61166;-82
2023/12/02 09:35:33;;;;;;;;;;;;;;;2.35;82.61;100481.91;106833;1260;124126;-82
2023/12/02 09:38:00;;;;;;;;;;;;;;;2.47;82.67;100475.47;106766;1254;66259;-82
2023/12/02 09:40:27;;;;;;;;;;;;;;;2.58;82.51;100473.41;106966;1257;124031;-77
2023/12/02 09:42:55;;;;;;;;;;;;;;;2.64;82.37;100474.47;106195;1258;61314;-81
2023/12/02 09:45:24;;;;;;;;;;;;;;;2.71;82.25;100475.69;106274;1254;61325;-82
2023/12/02 09:47:54;;;;;;;;;;;;;;;2.78;82.10;100476.72;106233;1255;125277;-82
2023/12/02 09:50:21;;;;;;;;;;;;;;;2.81;81.87;100479.85;106254;1257;66291;-81
2023/12/02 09:53:09;;;;;;;;;;;;;;;2.85;81.60;100484.91;106208;1259;125626;-82
2023/12/02 09:55:36;;;;;;;;;;;;;;;2.89;81.67;100482.18;106460;1260;61369;-82
2023/12/02 09:58:03;;;;;;;;;;;;;;;2.95;81.60;100484.86;106304;1253;61662;-83
2023/12/02 10:00:35;;;;;;;;;;;;;;;2.99;81.53;100483.52;106786;1256;124345;-84
2023/12/02 10:03:02;;;;;;;;;;;;;;;3.03;81.40;100487.18;106978;1257;66254;-81
2023/12/02 10:05:32;;;;;;;;;;;;;;;3.08;81.47;100488.84;106535;1255;124455;-82
2023/12/02 10:08:07;;;;;;;;;;;;;;;3.14;81.40;100483.73;106853;1254;59284;-82
2023/12/02 10:10:46;;;;;;;;;;;;;;;3.18;81.28;100481.35;106863;1257;124551;-78
2023/12/02 10:13:24;;;;;;;;;;;;;;;3.20;81.24;100476.27;106215;1259;74687;-82
2023/12/02 10:15:53;;;;;;;;;;;;;;;3.19;80.97;100468.80;106160;1254;65479;-82
2023/12/02 10:18:21;;;;;;;;;;;;;;;3.16;80.93;100466.19;106230;1257;124826;-83
2023/12/02 10:20:50;;;;;;;;;;;;;;;3.18;80.86;100467.30;106810;1254;61308;-83
2023/12/02 10:23:23;;;;;;;;;;;;;;;3.19;80.87;100461.98;106744;1254;123719;-83
2023/12/02 10:25:53;;;;;;;;;;;;;;;3.18;80.91;100465.23;106764;1254;74920;-83
2023/12/02 10:28:23;;;;;;;;;;;;;;;3.19;80.90;100463.37;106639;1254;124478;-82
2023/12/02 10:30:50;;;;;;;;;;;;;;;3.23;81.02;100465.12;106880;1257;72028;-83
2023/12/02 10:33:27;;;;;;;;;;;;;;;3.26;80.88;100459.07;106949;1255;59282;-83
2023/12/02 10:35:57;;;;;;;;;;;;;;;3.29;81.03;100458.52;106925;1259;123736;-79
2023/12/02 10:38:28;;;;;;;;;;;;;;;3.30;80.94;100456.32;106191;1257;74734;-79
2023/12/02 10:41:00;;;;;;;;;;;;;;;3.35;80.81;100458.27;106046;1254;124105;-78
2023/12/02 10:43:29;;;;;;;;;;;;;;;3.39;80.92;100458.48;106202;1260;72675;-79
2023/12/02 10:45:56;;;;;;;;;;;;;;;3.47;80.88;100457.33;109139;1255;64625;-79
2023/12/02 10:48:22;;;;;;;;;;;;;;;3.57;81.05;100451.52;109228;1253;124567;-79
2023/12/02 10:50:49;;;;;;;;;;;;;;;3.67;80.85;100452.89;108000;1254;73166;-83
2023/12/02 10:53:17;;;;;;;;;;;;;;;3.76;80.68;100452.23;106783;1254;124934;-77
2023/12/02 10:55:46;;;;;;;;;;;;;;;3.85;80.54;100449.05;106091;1257;73664;-78
2023/12/02 10:58:13;;;;;;;;;;;;;;;4.00;80.59;100448.71;106064;1259;124812;-78
2023/12/02 11:00:40;;;;;;;;;;;;;;;4.16;80.51;100445.61;105913;1254;61341;-82
2023/12/02 11:03:26;;;;;;;;;;;;;;;4.27;80.14;100447.69;106089;1257;73779;-83
2023/12/02 11:06:00;;;;;;;;;;;;;;;4.40;79.82;100443.55;105921;1258;123957;-83
2023/12/02 11:08:34;;;;;;;;;;;;;;;4.56;79.84;100438.70;106092;1260;72760;-83
2023/12/02 11:11:01;;;;;;;;;;;;;;;4.83;80.03;100434.34;106094;1255;124721;-83
2023/12/02 11:13:28;;;;;;;;;;;;;;;5.10;79.84;100434.58;106896;1257;61228;-79
2023/12/02 11:16:04;;;;;;;;;;;;;;;5.25;79.19;100436.95;106733;1254;74573;-79
2023/12/02 11:18:40;;;;;;;;;;;;;;;5.30;78.98;100441.51;105863;1260;123783;-77
2023/12/02 11:21:07;;;;;;;;;;;;;;;5.40;78.79;100441.23;106150;1259;72564;-78
2023/12/02 11:23:37;;;;;;;;;;;;;;;5.45;78.51;100445.95;106325;1254;123731;-83
2023/12/02 11:26:22;;;;;;;;;;;;;;;5.49;78.41;100452.38;106855;1254;61491;-83
2023/12/02 11:28:58;;;;;;;;;;;;;;;5.54;77.99;100453.26;106783;1257;124762;-78
2023/12/02 11:31:28;;;;;;;;;;;;;;;5.59;77.96;100460.27;106166;1254;65299;-83
2023/12/02 11:34:14;;;;;;;;;;;;;;;5.58;77.68;100466.48;106839;1258;72799;-82
2023/12/02 11:36:49;;;;;;;;;;;;;;;5.51;77.20;100474.73;106769;1254;61265;-83
2023/12/02 11:39:26;;;;;;;;;;;;;;;5.35;76.96;100479.11;106719;1254;61478;-79
2023/12/02 11:41:58;;;;;;;;;;;;;;;5.25;77.13;100477.65;106104;1253;123875;-82
2023/12/02 11:44:33;;;;;;;;;;;;;;;5.10;76.99;100472.34;106262;1254;64733;-83
2023/12/02 11:47:03;;;;;;;;;;;;;;;4.96;77.26;100476.27;106238;1257;124625;-83
2023/12/02 11:49:36;;;;;;;;;;;;;;;4.77;77.06;100476.15;106826;1254;61253;-83
2023/12/02 11:52:09;;;;;;;;;;;;;;;4.58;77.20;100477.40;106828;1257;61218;-78
2023/12/02 11:54:57;;;;;;;;;;;;;;;4.42;77.39;100483.61;106066;1254;124446;-78
2023/12/02 11:57:38;;;;;;;;;;;;;;;4.24;77.46;100482.31;106712;1254;66282;-84
2023/12/02 12:00:09;;;;;;;;;;;;;;;4.07;77.68;100484.64;106671;1254;124250;-83
2023/12/02 12:02:39;;;;;;;;;;;;;;;3.93;77.70;100488.30;106596;1257;61355;-78
2023/12/02 12:05:13;;;;;;;;;;;;;;;3.83;77.99;100484.85;106107;1254;124462;-78
2023/12/02 12:07:58;;;;;;;;;;;;;;;3.75;78.15;100483.97;106299;1254;73372;-78
2023/12/02 12:10:33;;;;;;;;;;;;;;;3.59;78.25;100490.14;106106;1254;124584;-79
2023/12/02 12:13:00;;;;;;;;;;;;;;;3.36;78.18;100482.46;108318;1257;72949;-78
2023/12/02 12:15:27;;;;;;;;;;;;;;;3.15;78.36;100487.61;106798;1259;61319;-79
2023/12/02 12:17:54;;;;;;;;;;;;;;;2.93;78.80;100479.09;106762;1254;123719;-79
2023/12/02 12:20:22;;;;;;;;;;;;;;;2.81;79.18;100472.20;106645;1254;74478;-78
2023/12/02 12:22:49;;;;;;;;;;;;;;;2.73;79.51;100474.05;106098;1257;124242;-78
2023/12/02 12:25:16;;;;;;;;;;;;;;;2.66;79.84;100480.44;106138;1254;72559;-77
2023/12/02 12:27:43;;;;;;;;;;;;;;;2.58;79.97;100483.67;106228;1257;61278;-79
2023/12/02 12:30:10;;;;;;;;;;;;;;;2.43;79.99;100485.80;106166;1257;124740;-79
2023/12/02 12:32:37;;;;;;;;;;;;;;;2.24;79.98;100485.33;106772;1254;74209;-79